createdAt,value
2019-03-05T00:04:31.585Z,589.77
2019-03-05T00:09:34.234Z,573.60
2019-03-05T00:14:36.832Z,744.53
2019-03-05T00:19:39.369Z,695.43
2019-03-05T00:24:59.833Z,498.33
2019-03-05T00:30:44.830Z,512.90
2019-03-05T00:36:09.589Z,504.00
2019-03-05T00:41:33.655Z,576.13
2019-03-05T00:47:42.304Z,1445.93
2019-03-05T00:53:21.939Z,557.63
2019-03-05T00:59:00.305Z,879.67
2019-03-05T01:04:39.658Z,860.93
2019-03-05T01:09:42.215Z,820.17
2019-03-05T01:14:44.795Z,786.80
2019-03-05T01:19:47.360Z,1045.23
2019-03-05T01:24:50.010Z,1020.80
2019-03-05T01:29:52.584Z,1232.53
2019-03-05T01:35:05.137Z,983.90
2019-03-05T01:40:15.966Z,1270.37
2019-03-05T01:45:18.505Z,1219.67
2019-03-05T01:50:21.045Z,1128.60
2019-03-05T01:55:23.611Z,1346.70
2019-03-05T02:00:26.186Z,1074.40
2019-03-05T02:05:28.812Z,887.23
2019-03-05T02:10:31.339Z,1104.90
2019-03-05T02:15:33.922Z,845.07
2019-03-05T02:20:36.486Z,773.93
2019-03-05T02:25:50.157Z,1938.47
2019-03-05T02:31:07.252Z,1251.83
2019-03-05T02:36:38.737Z,781.30
2019-03-05T02:42:12.905Z,973.17
2019-03-05T02:47:56.422Z,757.17
2019-03-05T02:53:26.696Z,1249.33
2019-03-05T02:58:28.236Z,1999.00
2019-03-05T03:03:34.843Z,1264.90
2019-03-05T03:08:37.451Z,815.60
2019-03-05T03:13:39.962Z,796.63
2019-03-05T03:18:42.551Z,793.73
2019-03-05T03:23:45.143Z,707.77
2019-03-05T03:28:47.732Z,668.10
2019-03-05T03:33:50.290Z,569.47
2019-03-05T03:38:52.848Z,979.00
2019-03-05T03:43:55.396Z,616.37
2019-03-05T03:48:57.938Z,1048.00
2019-03-05T03:54:00.495Z,816.10
2019-03-05T03:59:03.182Z,811.80
2019-03-05T04:04:05.736Z,983.97
2019-03-05T04:09:10.519Z,952.80
2019-03-05T04:14:13.259Z,947.20
2019-03-05T04:19:19.381Z,983.80
2019-03-05T04:24:21.948Z,962.83
2019-03-05T04:29:24.604Z,992.73
2019-03-05T04:34:27.190Z,966.13
2019-03-05T04:39:29.744Z,1088.70
2019-03-05T04:44:41.031Z,933.60
2019-03-05T04:50:03.088Z,1109.13
2019-03-05T04:55:06.768Z,1007.43
2019-03-05T05:00:12.390Z,1003.13
2019-03-05T05:05:15.249Z,983.20
2019-03-05T05:10:17.786Z,936.27
2019-03-05T05:15:26.086Z,1054.77
2019-03-05T05:20:28.658Z,969.40
2019-03-05T05:25:31.227Z,1006.77
2019-03-05T05:30:37.776Z,932.20
2019-03-05T05:35:40.414Z,1068.17
2019-03-05T05:40:44.230Z,909.77
2019-03-05T05:45:48.293Z,903.60
2019-03-05T05:50:50.843Z,943.13
2019-03-05T05:55:53.414Z,953.00
2019-03-05T06:00:58.125Z,903.97
2019-03-05T06:06:00.845Z,856.03
2019-03-05T06:11:03.407Z,893.57
2019-03-05T06:16:06.001Z,878.57
2019-03-05T06:21:08.549Z,924.13
2019-03-05T06:26:11.100Z,973.93
2019-03-05T06:31:13.642Z,986.27
2019-03-05T06:36:16.201Z,983.70
2019-03-05T06:41:18.763Z,877.97
2019-03-05T06:46:21.319Z,932.13
2019-03-05T06:51:23.873Z,912.57
2019-03-05T06:56:26.418Z,968.00
2019-03-05T07:01:28.970Z,999.67
2019-03-05T07:06:52.990Z,972.30
2019-03-05T07:12:17.465Z,1056.13
2019-03-05T07:17:28.963Z,1029.00
2019-03-05T07:22:53.991Z,1066.70
2019-03-05T07:27:57.573Z,1018.90
2019-03-05T07:33:00.246Z,1043.20
2019-03-05T07:38:02.926Z,870.53
2019-03-05T07:43:05.447Z,937.43
2019-03-05T07:48:08.050Z,906.67
2019-03-05T07:53:10.975Z,858.93
2019-03-05T07:58:13.569Z,988.20
2019-03-05T08:03:16.221Z,658.07
2019-03-05T08:08:55.546Z,932.10
2019-03-05T08:14:37.242Z,1069.57
2019-03-05T08:19:40.762Z,1125.33
2019-03-05T08:24:43.317Z,1723.40
2019-03-05T08:29:46.270Z,1873.27
2019-03-05T08:34:49.723Z,1104.23
2019-03-05T08:39:53.807Z,1081.30
2019-03-05T08:44:57.728Z,1346.77
2019-03-05T08:50:01.460Z,1244.07
2019-03-05T08:55:06.003Z,1055.07
2019-03-05T09:00:12.837Z,1541.20
2019-03-05T09:05:17.912Z,1276.60
2019-03-05T09:10:22.645Z,1069.97
2019-03-05T09:15:26.919Z,1076.90
2019-03-05T09:20:29.602Z,1316.70
2019-03-05T09:25:32.155Z,1249.37
2019-03-05T09:30:34.752Z,1044.00
2019-03-05T09:35:37.351Z,880.60
2019-03-05T09:40:39.918Z,1481.13
2019-03-05T09:45:42.564Z,1069.83
2019-03-05T09:50:46.741Z,877.47
2019-03-05T09:55:49.508Z,1112.20
2019-03-05T10:00:52.442Z,1312.27
2019-03-05T10:05:55.002Z,1561.23
2019-03-05T10:10:57.572Z,1098.40
2019-03-05T10:16:00.158Z,1850.50
2019-03-05T10:21:02.836Z,1197.77
2019-03-05T10:26:05.390Z,932.77
2019-03-05T10:31:08.150Z,936.13
2019-03-05T10:36:10.699Z,843.67
2019-03-05T10:41:13.237Z,1638.10
2019-03-05T10:46:15.788Z,1440.50
2019-03-05T10:51:18.344Z,909.63
2019-03-05T11:12:42.586Z,656.37
2019-03-05T11:19:47.792Z,502.83
2019-03-05T11:24:52.827Z,8.47
2019-03-05T13:08:22.767Z,2.57
2019-03-05T13:13:27.809Z,2.13
2019-03-05T13:18:32.942Z,3.20
2019-03-05T13:23:38.026Z,3.57
2019-03-05T13:28:43.111Z,3.73
2019-03-05T13:33:48.234Z,1.07
2019-03-05T13:38:54.448Z,2.80
2019-03-05T13:43:59.842Z,4.70
2019-03-05T13:49:41.104Z,3.50
2019-03-05T13:55:23.460Z,1.83
2019-03-05T14:00:28.358Z,8.73
2019-03-05T14:06:10.533Z,2.37
2019-03-05T14:11:15.575Z,4.17
2019-03-05T14:16:21.799Z,2.77
2019-03-05T14:21:26.827Z,5.70
2019-03-05T14:26:31.834Z,7.00
2019-03-05T14:31:36.822Z,5.10
2019-03-05T14:36:41.852Z,4.63
2019-03-05T14:41:46.853Z,3.13
2019-03-05T14:46:56.843Z,5.93
2019-03-05T14:52:01.960Z,7.17
2019-03-05T14:57:07.002Z,4.30
2019-03-05T15:02:12.008Z,2.57
2019-03-05T15:07:16.983Z,2.40
2019-03-05T15:12:22.091Z,2.10
2019-03-05T15:17:27.141Z,5.07
2019-03-05T15:22:32.191Z,6.43
2019-03-05T15:27:37.381Z,4.63
2019-03-05T15:32:42.693Z,6.47
2019-03-05T15:37:47.766Z,7.47
2019-03-05T15:42:52.758Z,3.60
2019-03-05T15:47:57.751Z,8.97
2019-03-05T15:53:02.732Z,4.87
2019-03-05T15:58:07.736Z,3.03
2019-03-05T16:03:12.851Z,5.50
2019-03-05T16:08:20.997Z,3.27
2019-03-05T16:13:24.488Z,3.93
2019-03-05T16:18:29.494Z,4.73
2019-03-05T16:23:34.495Z,5.10
2019-03-05T16:28:43.618Z,3.83
2019-03-05T16:34:03.933Z,3.27
2019-03-05T16:39:21.807Z,3.90
2019-03-05T16:44:40.487Z,3.60
2019-03-05T16:49:59.572Z,3.73
2019-03-05T16:55:18.755Z,4.10
2019-03-05T17:00:32.727Z,5.53
2019-03-05T17:05:59.536Z,5.07
2019-03-05T17:11:22.303Z,7.10
2019-03-05T17:16:27.308Z,6.10
2019-03-05T17:21:32.411Z,3.80
2019-03-05T17:26:37.649Z,2.53
2019-03-05T17:31:42.603Z,8.60
2019-03-05T17:36:48.741Z,4.17
2019-03-05T17:41:54.038Z,5.63
2019-03-05T17:46:59.113Z,3.83
2019-03-05T17:52:04.103Z,2.90
2019-03-05T17:57:09.199Z,7.07
2019-03-05T18:02:14.415Z,9.60
2019-03-05T18:07:19.836Z,11.83
2019-03-05T18:12:26.575Z,6.70
2019-03-05T18:17:33.515Z,6.63
2019-03-05T18:22:39.344Z,8.47
2019-03-05T18:27:44.404Z,8.50
2019-03-05T18:32:49.459Z,7.10
2019-03-05T18:37:54.488Z,5.20
2019-03-05T18:42:59.820Z,2.50
2019-03-05T18:48:05.424Z,6.50
2019-03-05T18:53:10.415Z,7.20
2019-03-05T18:58:15.539Z,8.20
2019-03-05T19:03:21.731Z,6.10
2019-03-05T19:08:26.775Z,2.87
2019-03-05T19:13:31.788Z,5.77
2019-03-05T19:18:37.140Z,7.23
2019-03-05T19:23:42.119Z,9.63
2019-03-05T19:28:49.001Z,6.77
2019-03-05T19:39:05.387Z,5.27
2019-03-05T19:44:10.448Z,5.00
2019-03-05T19:49:15.463Z,5.27
2019-03-05T19:54:20.452Z,6.90
2019-03-05T19:59:25.771Z,4.47
2019-03-05T20:04:30.899Z,6.80
2019-03-05T20:09:35.883Z,10.53
2019-03-05T20:14:41.204Z,4.53
2019-03-05T20:19:46.281Z,7.80
2019-03-05T20:24:51.575Z,10.93
2019-03-05T20:29:56.600Z,6.40
2019-03-05T20:35:02.020Z,7.37
2019-03-05T20:40:09.420Z,8.37
2019-03-05T20:45:17.655Z,5.57
2019-03-05T20:50:22.957Z,9.57
2019-03-05T20:55:28.071Z,6.40
2019-03-05T21:00:33.222Z,6.90
2019-03-05T21:05:40.323Z,6.30
2019-03-05T21:10:45.304Z,7.03
2019-03-05T21:15:50.559Z,7.77
2019-03-05T21:20:55.568Z,7.33
2019-03-05T21:26:00.572Z,8.17
2019-03-05T21:31:07.278Z,5.27
2019-03-05T21:36:12.317Z,7.50
2019-03-05T21:41:17.362Z,7.33
2019-03-05T21:46:22.364Z,6.27
2019-03-05T21:51:28.053Z,9.87
2019-03-05T21:56:33.659Z,6.83
2019-03-05T22:01:38.680Z,6.00
2019-03-05T22:06:43.671Z,9.60
2019-03-05T22:11:48.683Z,8.80
2019-03-05T22:16:53.709Z,9.17
2019-03-05T22:21:58.767Z,4.93
2019-03-05T22:27:03.783Z,9.20
2019-03-05T22:32:08.809Z,11.57
2019-03-05T22:37:13.909Z,8.00
2019-03-05T22:42:18.921Z,12.30
2019-03-05T22:47:23.989Z,10.50
2019-03-05T22:52:30.431Z,8.17
2019-03-05T22:57:35.573Z,10.63
2019-03-05T23:02:41.156Z,8.40
2019-03-05T23:07:47.890Z,11.97
2019-03-05T23:12:54.465Z,11.67
2019-03-05T23:17:59.540Z,8.73
2019-03-05T23:23:05.306Z,13.07
2019-03-05T23:28:10.328Z,83.87
2019-03-05T23:33:16.343Z,53.77
2019-03-05T23:38:21.583Z,13.50
2019-03-05T23:43:27.014Z,8.00
2019-03-05T23:48:32.044Z,6.30
2019-03-05T23:53:37.439Z,5.03
2019-03-05T23:58:42.445Z,9.00
